CheckWX is a tool to help pilots better visualize weather data.  It is not intended as a substitute for an official pre-flight weather briefing.

00:33:58 UTC

LFOE METAR
Évreux-Fauville (BA 105) Air Base Airport
Évreux/Fauville, France
Current

34 mins ago

LFOE 060000Z AUTO 19009KT 1800 BR VV/// 00/00 Q1020
Observed
Dec-6 @ 00:00 UTC
Wind
  • 190° at 9 KTS
Visibility
1,800 meters
Flight Rules
LIFR
Conditions
Mist
Cloud Levels
  • Vertical visibility
Temperature
C / 32°F
Dewpoint
C / 32°F
Humidity
100%
Altimeter
30.12" Hg
Pressure
1019.92 hPa
Previous

1 hour ago

LFOE 052330Z AUTO 20008KT 1200 1100 R22/1400U BR VV/// M00/M00 Q1021
Observed
Dec-5 @ 23:30 UTC
Wind
  • 200° at 8 KTS
Visibility
1,200 meters
Flight Rules
LIFR
Conditions
Mist
Cloud Levels
  • Vertical visibility
Temperature
C / 32°F
Dewpoint
C / 32°F
Humidity
100%
Altimeter
30.15" Hg
Pressure
1020.92 hPa
Previous

2 hours ago

LFOE 052300Z AUTO /////KT 0750 0700 R22/0800U FZFG VV/// M00/M00 Q1021
Observed
Dec-5 @ 23:00 UTC
Visibility
800 meters
Flight Rules
LIFR
Conditions
Freezing Fog
Cloud Levels
  • Vertical visibility
Temperature
C / 32°F
Dewpoint
C / 32°F
Humidity
100%
Altimeter
30.15" Hg
Pressure
1020.92 hPa